Makkovik, Canada
Current Conditions -  °F | °C
As of 1:00 AM on Tuesday 27 Jan 2015 (Local Time) from CWCA Reporting Station
Blowing Snow Blowing Snow  
Wind Chill: -29°   Ceiling: 4000
Heat Index: -8°   Visibility: 15mi
Dew Point: -17°   Wind: 15mph
Humidity: 65%   Direction: 250°WSW
Pressure: 30.12"   Gusts: 23mph
Location:  55.08°N, 59.18°W
Report Text: CWCA 270500Z 25013G20KT 15SM DRSN BKN040 OVC070 M22/M27 A3012 RMK SC5AS2 PRESRR SLP201
Loading
Personal Weather Stations






























Interactive Weather Map New forecast layout! Learn more

10-Day Weather Forecast

Advertisements
Track Severe Weather on mobile